createdAt,value
2023-04-18T00:02:02.400Z,34.01
2023-04-18T00:04:08.223Z,34.08
2023-04-18T00:06:13.565Z,34.2
2023-04-18T00:08:18.673Z,34.09
2023-04-18T00:10:23.795Z,34.06
2023-04-18T00:12:28.904Z,34.09
2023-04-18T00:14:33.925Z,34.12
2023-04-18T00:16:39.236Z,34
2023-04-18T00:18:44.397Z,34.08
2023-04-18T00:20:49.456Z,33.78
2023-04-18T00:22:54.479Z,33.88
2023-04-18T00:24:59.516Z,33.89
2023-04-18T00:27:04.647Z,33.98
2023-04-18T00:29:09.715Z,33.98
2023-04-18T00:31:14.931Z,33.91
2023-04-18T00:33:20.016Z,33.91
2023-04-18T00:35:25.071Z,33.85
2023-04-18T00:37:30.077Z,34
2023-04-18T00:39:35.130Z,33.88
2023-04-18T00:41:40.145Z,34.03
2023-04-18T00:43:45.171Z,34.02
2023-04-18T00:45:50.384Z,33.96
2023-04-18T00:47:55.617Z,34
2023-04-18T00:50:00.811Z,33.95
2023-04-18T00:52:05.908Z,33.94
2023-04-18T00:54:11.028Z,33.94
2023-04-18T00:56:16.231Z,34.07
2023-04-18T00:58:21.276Z,34.09
2023-04-18T01:00:26.282Z,34.11
2023-04-18T01:02:31.753Z,34.2
2023-04-18T01:04:37.445Z,34.11
2023-04-18T01:06:42.485Z,34.08
2023-04-18T01:08:47.488Z,34.11
2023-04-18T01:10:52.552Z,34.03
2023-04-18T01:12:57.545Z,33.99
2023-04-18T01:15:02.634Z,34.04
2023-04-18T01:17:07.696Z,34
2023-04-18T01:19:12.757Z,34.08
2023-04-18T01:22:02.046Z,34.01
2023-04-18T01:24:07.100Z,34.04
2023-04-18T01:26:12.204Z,34.04
2023-04-18T01:28:17.316Z,34.09
2023-04-18T01:30:22.335Z,34.13
2023-04-18T01:32:27.552Z,34.17
2023-04-18T01:34:32.661Z,34.21
2023-04-18T01:36:37.786Z,34.21
2023-04-18T01:38:42.812Z,34.25
2023-04-18T01:40:47.887Z,34.23
2023-04-18T01:42:52.915Z,34.28
2023-04-18T01:44:57.965Z,34.36
2023-04-18T01:47:03.226Z,34.3
2023-04-18T01:49:08.326Z,34.29
2023-04-18T01:51:13.306Z,34.36
2023-04-18T01:53:18.331Z,34.44
2023-04-18T01:55:23.431Z,34.47
2023-04-18T01:57:28.454Z,34.29
2023-04-18T01:59:33.584Z,34.41
2023-04-18T02:01:38.637Z,34.49
2023-04-18T02:03:44.470Z,34.58
2023-04-18T02:05:49.597Z,34.58
2023-04-18T02:07:54.621Z,34.62
2023-04-18T02:10:00.159Z,34.59
2023-04-18T02:12:05.255Z,34.53
2023-04-18T02:14:10.346Z,34.59
2023-04-18T02:16:15.593Z,34.64
2023-04-18T02:18:20.698Z,34.67
2023-04-18T02:20:25.732Z,34.74
2023-04-18T02:22:30.804Z,34.74
2023-04-18T02:24:35.807Z,34.73
2023-04-18T02:26:40.810Z,34.76
2023-04-18T02:28:45.849Z,34.7
2023-04-18T02:30:50.842Z,34.71
2023-04-18T02:32:56.084Z,34.62
2023-04-18T02:35:01.615Z,34.56
2023-04-18T02:37:06.702Z,34.71
2023-04-18T02:39:11.774Z,34.66
2023-04-18T02:41:16.806Z,34.49
2023-04-18T02:43:21.863Z,34.52
2023-04-18T02:45:26.926Z,34.52
2023-04-18T02:47:55.783Z,34.57
2023-04-18T02:50:01.718Z,34.54
2023-04-18T02:52:06.849Z,34.49
2023-04-18T02:54:12.099Z,34.47
2023-04-18T02:56:17.258Z,34.4
2023-04-18T02:58:22.271Z,34.49
2023-04-18T03:00:27.331Z,34.44
2023-04-18T03:02:32.691Z,34.43
2023-04-18T03:04:37.959Z,34.38
2023-04-18T03:06:43.078Z,34.43
2023-04-18T03:08:48.151Z,34.41
2023-04-18T03:10:53.776Z,34.41
2023-04-18T03:12:59.764Z,34.37
2023-04-18T03:15:04.732Z,34.23
2023-04-18T03:17:09.756Z,34.33
2023-04-18T03:19:14.761Z,34.35
2023-04-18T03:21:19.837Z,34.33
2023-04-18T03:23:24.862Z,34.43
2023-04-18T03:25:29.910Z,34.37
2023-04-18T03:27:39.262Z,34.43
2023-04-18T03:29:44.309Z,34.19
2023-04-18T03:31:49.493Z,34.34
2023-04-18T03:33:54.521Z,34.36
2023-04-18T03:35:59.565Z,34.33
2023-04-18T03:38:04.792Z,34.38
2023-04-18T03:40:09.831Z,34.27
2023-04-18T03:42:14.862Z,34.37
2023-04-18T03:44:19.928Z,34.37
2023-04-18T03:46:25.299Z,34.38
2023-04-18T03:48:30.334Z,34.38
2023-04-18T03:50:35.382Z,34.45
2023-04-18T03:52:40.433Z,34.26
2023-04-18T03:54:45.501Z,34.45
2023-04-18T03:56:50.540Z,34.45
2023-04-18T03:58:55.614Z,34.17
2023-04-18T04:01:00.659Z,34.33
2023-04-18T04:03:06.409Z,34.28
2023-04-18T04:05:11.907Z,34.32
2023-04-18T04:07:17.006Z,34.36
2023-04-18T04:09:22.068Z,34.32
2023-04-18T04:11:27.228Z,34.29
2023-04-18T04:13:32.275Z,34.35
2023-04-18T04:15:37.289Z,34.34
2023-04-18T04:17:42.415Z,34.19
2023-04-18T04:19:47.510Z,34.22
2023-04-18T04:21:52.554Z,34.11
2023-04-18T04:23:57.568Z,35.57
2023-04-18T04:26:02.641Z,34.9
2023-04-18T04:28:07.775Z,34.53
2023-04-18T04:30:15.687Z,34.84
2023-04-18T04:32:20.803Z,35.51
2023-04-18T04:34:25.831Z,35.14
2023-04-18T04:36:30.887Z,35.67
2023-04-18T04:38:35.941Z,35.47
2023-04-18T04:40:40.971Z,35.51
2023-04-18T04:42:46.060Z,35.29
2023-04-18T04:44:51.316Z,35.38
2023-04-18T04:46:56.376Z,34.9
2023-04-18T04:49:01.419Z,35.78
2023-04-18T04:51:06.567Z,36.15
2023-04-18T04:53:11.675Z,36.28
2023-04-18T04:55:16.812Z,36.22
2023-04-18T04:57:21.849Z,36.4
2023-04-18T04:59:26.877Z,36.13
2023-04-18T05:01:32.094Z,36.48
2023-04-18T05:03:38.075Z,36.46
2023-04-18T05:05:43.256Z,36.44
2023-04-18T05:07:48.277Z,36.05
2023-04-18T05:09:53.381Z,36.18
2023-04-18T05:11:58.427Z,36.5
2023-04-18T05:14:03.411Z,36.34
2023-04-18T05:16:08.537Z,36.24
2023-04-18T05:18:13.562Z,36.3
2023-04-18T05:20:18.615Z,36.23
2023-04-18T05:22:23.894Z,36.17
2023-04-18T05:24:28.928Z,36.16
2023-04-18T05:26:33.993Z,36.17
2023-04-18T05:28:39.008Z,36.05
2023-04-18T05:30:44.207Z,36.1
2023-04-18T05:32:49.502Z,36.11
2023-04-18T05:34:54.544Z,36.09
2023-04-18T05:36:59.622Z,36.05
2023-04-18T05:39:04.851Z,36.06
2023-04-18T05:41:09.879Z,36.06
2023-04-18T05:43:14.919Z,36.09
2023-04-18T05:45:20.060Z,36.27
2023-04-18T05:47:25.198Z,36.41
2023-04-18T05:49:30.249Z,36.32
2023-04-18T05:51:35.281Z,36.29
2023-04-18T05:53:40.336Z,36.35
2023-04-18T05:55:45.365Z,36.33
2023-04-18T05:57:50.400Z,36.31
2023-04-18T05:59:55.496Z,36.32
2023-04-18T06:02:01.084Z,36.47
2023-04-18T06:04:06.743Z,36.65
2023-04-18T06:06:11.945Z,36.65
2023-04-18T06:08:17.183Z,36.63
2023-04-18T06:10:22.253Z,36.67
2023-04-18T06:12:27.292Z,36.79
2023-04-18T06:14:32.632Z,36.79
2023-04-18T06:16:38.143Z,36.9
2023-04-18T06:18:43.288Z,36.81
2023-04-18T06:20:48.365Z,36.65
2023-04-18T06:22:53.465Z,36.83
2023-04-18T06:24:58.591Z,36.6
2023-04-18T06:27:03.691Z,36.77
2023-04-18T06:29:08.726Z,36.94
2023-04-18T06:31:13.883Z,36.95
2023-04-18T06:33:18.981Z,37.14
2023-04-18T06:35:26.766Z,37.26
2023-04-18T06:37:31.912Z,36.97
2023-04-18T06:39:36.899Z,36.69
2023-04-18T06:41:41.967Z,36.62
2023-04-18T06:44:05.929Z,36.55
2023-04-18T06:46:11.233Z,36.51
2023-04-18T06:48:16.268Z,36.57
2023-04-18T06:50:21.313Z,36.58
2023-04-18T06:52:26.353Z,36.53
2023-04-18T06:54:31.355Z,36.5
2023-04-18T06:56:38.800Z,36.4
2023-04-18T06:58:43.794Z,36.45
2023-04-18T07:00:49.188Z,36.38
2023-04-18T07:02:54.896Z,36.37
2023-04-18T07:05:00.076Z,36.3
2023-04-18T07:07:05.257Z,36.21
2023-04-18T07:09:10.422Z,36.16
2023-04-18T07:11:15.481Z,36.17
2023-04-18T07:13:20.621Z,36.18
2023-04-18T07:15:25.680Z,36.2
2023-04-18T07:17:30.897Z,36.14
2023-04-18T07:19:35.906Z,36.09
2023-04-18T07:21:40.934Z,36.09
2023-04-18T07:23:45.960Z,36.08
2023-04-18T07:25:50.996Z,36.07
2023-04-18T07:27:56.104Z,36.03
2023-04-18T07:30:01.229Z,36.01
2023-04-18T07:32:09.877Z,36.07
2023-04-18T07:34:16.001Z,36.02
2023-04-18T07:36:21.171Z,36.01
2023-04-18T07:38:26.193Z,35.96
2023-04-18T07:40:31.395Z,35.91
2023-04-18T07:42:36.484Z,35.96
2023-04-18T07:44:41.497Z,35.9
2023-04-18T07:46:46.910Z,35.9
2023-04-18T07:48:52.220Z,35.9
2023-04-18T07:50:57.252Z,35.91
2023-04-18T07:53:02.324Z,35.92
2023-04-18T07:55:07.345Z,35.8
2023-04-18T07:57:12.573Z,35.78
2023-04-18T07:59:18.290Z,35.78
2023-04-18T08:01:23.463Z,35.73
2023-04-18T08:03:29.398Z,35.82
2023-04-18T08:05:34.923Z,35.77
2023-04-18T08:07:40.106Z,35.8
2023-04-18T08:09:45.387Z,35.77
2023-04-18T08:11:50.435Z,35.73
2023-04-18T08:13:55.571Z,35.7
2023-04-18T08:16:00.808Z,35.61
2023-04-18T08:18:06.175Z,35.7
2023-04-18T08:20:11.290Z,35.55
2023-04-18T08:22:16.365Z,35.6
2023-04-18T08:24:21.424Z,35.58
2023-04-18T08:26:26.581Z,35.54
2023-04-18T08:28:31.738Z,35.57
2023-04-18T08:30:37.037Z,35.56
2023-04-18T08:32:42.362Z,35.54
2023-04-18T08:34:47.407Z,35.55
2023-04-18T08:36:52.403Z,35.76
2023-04-18T08:38:57.466Z,35.7
2023-04-18T08:41:02.543Z,35.62
2023-04-18T08:43:07.623Z,35.63
2023-04-18T08:45:12.703Z,35.55
2023-04-18T08:47:17.817Z,35.53
2023-04-18T08:49:22.879Z,35.51
2023-04-18T08:51:27.948Z,35.52
2023-04-18T08:53:33.080Z,35.57
2023-04-18T08:55:38.157Z,35.55
2023-04-18T08:57:43.327Z,35.59
2023-04-18T08:59:52.416Z,35.59
2023-04-18T09:01:57.614Z,35.55
2023-04-18T09:04:02.990Z,35.51
2023-04-18T09:06:08.194Z,35.54
2023-04-18T09:08:13.257Z,35.55
2023-04-18T09:10:18.300Z,35.66
2023-04-18T09:12:23.317Z,35.65
2023-04-18T09:14:28.522Z,35.6
2023-04-18T09:16:33.798Z,35.6
2023-04-18T09:18:38.886Z,36.06
2023-04-18T09:20:44.103Z,35.64
2023-04-18T09:22:49.204Z,35.63
2023-04-18T09:24:54.367Z,35.86
2023-04-18T09:26:59.542Z,35.7
2023-04-18T09:29:04.595Z,35.79
2023-04-18T09:31:09.910Z,35.57
2023-04-18T09:33:15.156Z,35.67
2023-04-18T09:35:20.282Z,35.66
2023-04-18T09:37:25.346Z,36.02
2023-04-18T09:39:30.471Z,36.27
2023-04-18T09:41:35.507Z,36.34
2023-04-18T09:43:40.571Z,36.83
2023-04-18T09:45:45.796Z,37.11
2023-04-18T09:47:51.079Z,37.16
2023-04-18T09:49:56.226Z,37.36
2023-04-18T09:52:01.341Z,37.12
2023-04-18T09:54:06.441Z,37.39
2023-04-18T09:56:11.641Z,37.31
2023-04-18T09:58:16.751Z,37.31
2023-04-18T10:00:21.856Z,37.25
2023-04-18T10:02:27.320Z,37.18
2023-04-18T10:04:32.818Z,37.22
2023-04-18T10:06:38.103Z,37.12
2023-04-18T10:08:43.152Z,36.63
2023-04-18T10:10:48.287Z,36.97
2023-04-18T10:12:53.407Z,36.7
2023-04-18T10:14:58.568Z,36.88
2023-04-18T10:17:03.613Z,37.02
2023-04-18T10:19:08.664Z,37.1
2023-04-18T10:21:13.754Z,36.14
2023-04-18T10:23:18.809Z,34.57
2023-04-18T10:25:23.959Z,35.13
2023-04-18T10:27:29.095Z,35.08
2023-04-18T10:29:34.213Z,36.25
2023-04-18T10:31:39.571Z,36.85
2023-04-18T10:36:05.792Z,37.14
2023-04-18T10:38:10.833Z,37.01
2023-04-18T10:40:15.906Z,37.25
2023-04-18T10:42:21.070Z,36.96
2023-04-18T10:44:26.565Z,37.05
2023-04-18T10:46:34.751Z,37.34
2023-04-18T10:48:41.129Z,36.96
2023-04-18T10:50:46.198Z,37.13
2023-04-18T10:52:51.311Z,37.09
2023-04-18T10:54:59.267Z,37.06
2023-04-18T10:57:04.483Z,37.14
2023-04-18T10:59:09.549Z,36.65
2023-04-18T11:01:14.904Z,36.21
2023-04-18T11:03:20.466Z,36.15
2023-04-18T11:05:25.629Z,36.41
2023-04-18T11:07:32.461Z,36.45
2023-04-18T11:09:37.486Z,36.11
2023-04-18T11:11:42.941Z,35.99
2023-04-18T11:13:48.299Z,35.67
2023-04-18T11:15:53.607Z,35.63
2023-04-18T11:17:58.958Z,35.6
2023-04-18T11:20:04.320Z,35.44
2023-04-18T11:22:09.540Z,35.39
2023-04-18T11:24:15.405Z,35.44
2023-04-18T11:26:20.602Z,35.38
2023-04-18T11:28:25.753Z,35.86
2023-04-18T11:30:30.888Z,36.33
2023-04-18T11:32:36.412Z,36.75
2023-04-18T11:34:41.568Z,36.93
2023-04-18T11:36:46.829Z,36.81
2023-04-18T11:38:51.984Z,36.85
2023-04-18T11:40:57.217Z,36.86
2023-04-18T11:43:02.349Z,36.68
2023-04-18T11:45:07.475Z,36.65
2023-04-18T11:47:12.634Z,37.34
2023-04-18T11:49:17.710Z,37.44
2023-04-18T11:51:22.843Z,37.03
2023-04-18T11:53:27.962Z,36.8
2023-04-18T11:55:32.987Z,36.78
2023-04-18T11:57:38.081Z,36.61
2023-04-18T11:59:43.101Z,36.76
2023-04-18T12:01:48.324Z,36.81
2023-04-18T12:03:54.295Z,37.06
2023-04-18T12:06:00.020Z,37.04
2023-04-18T12:08:05.163Z,36.95
2023-04-18T12:10:10.332Z,36.99
2023-04-18T12:12:15.448Z,37.12
2023-04-18T12:14:20.476Z,37.23
2023-04-18T12:16:25.680Z,37.17
2023-04-18T12:18:30.862Z,37.46
2023-04-18T12:20:35.941Z,37.56
2023-04-18T12:22:41.048Z,37.62
2023-04-18T12:24:46.136Z,37.82
2023-04-18T12:26:51.202Z,37.68
2023-04-18T12:28:56.305Z,37.58
2023-04-18T12:31:01.859Z,37.65
2023-04-18T12:33:07.107Z,37.47
2023-04-18T12:35:12.296Z,37.55
2023-04-18T12:37:17.438Z,37.39
2023-04-18T12:39:22.557Z,37.5
2023-04-18T12:41:27.719Z,37.39
2023-04-18T12:43:32.775Z,37.41
2023-04-18T12:45:37.920Z,37.36
2023-04-18T12:47:43.214Z,37.28
2023-04-18T12:49:48.290Z,37.29
2023-04-18T12:51:53.372Z,37.27
2023-04-18T12:53:58.469Z,37.15
2023-04-18T12:56:03.573Z,37.15
2023-04-18T12:58:08.650Z,37.03
2023-04-18T13:00:14.156Z,37.02
2023-04-18T13:02:19.527Z,36.96
2023-04-18T13:04:25.623Z,36.94
2023-04-18T13:06:30.782Z,36.82
2023-04-18T13:08:35.950Z,36.87
2023-04-18T13:10:41.060Z,36.88
2023-04-18T13:12:46.117Z,37.04
2023-04-18T13:14:51.205Z,36.84
2023-04-18T13:16:56.428Z,37.08
2023-04-18T13:19:01.570Z,37.02
2023-04-18T13:21:06.706Z,37.13
2023-04-18T13:23:11.831Z,37.05
2023-04-18T13:25:16.985Z,37.16
2023-04-18T13:27:22.127Z,37.21
2023-04-18T13:29:27.249Z,37.3
2023-04-18T13:31:32.876Z,37.34
2023-04-18T13:33:37.993Z,37.41
2023-04-18T13:35:43.074Z,37.48
2023-04-18T13:37:48.401Z,37.51
2023-04-18T13:39:53.644Z,37.45
2023-04-18T13:41:58.831Z,37.51
2023-04-18T13:44:04.057Z,37.38
2023-04-18T13:46:09.346Z,37.44
2023-04-18T13:48:17.680Z,37.38
2023-04-18T13:50:23.520Z,37.34
2023-04-18T13:52:28.743Z,37.26
2023-04-18T13:54:33.897Z,37.45
2023-04-18T13:56:38.973Z,37.46
2023-04-18T13:58:47.151Z,37.27
2023-04-18T14:00:52.178Z,37.25
2023-04-18T14:02:57.803Z,37.14
2023-04-18T14:05:03.781Z,37.17
2023-04-18T14:07:09.169Z,37.12
2023-04-18T14:09:15.014Z,37.27
2023-04-18T14:11:20.190Z,37.36
2023-04-18T14:13:25.279Z,37.68
2023-04-18T14:15:30.729Z,37.87
2023-04-18T14:17:36.329Z,37.92
2023-04-18T14:19:41.370Z,38.1
2023-04-18T14:21:46.334Z,38.29
2023-04-18T14:23:51.397Z,38.87
2023-04-18T14:25:56.520Z,39.01
2023-04-18T14:28:01.569Z,39.1
2023-04-18T14:30:06.771Z,39.37
2023-04-18T14:32:11.750Z,39.47
2023-04-18T14:34:16.793Z,39.38
2023-04-18T14:36:21.851Z,39.31
2023-04-18T14:38:26.918Z,39.29
2023-04-18T14:40:35.126Z,39.26
2023-04-18T14:42:40.380Z,39.2
2023-04-18T14:44:45.466Z,38.97
2023-04-18T14:46:50.700Z,38.86
2023-04-18T14:48:55.843Z,38.9
2023-04-18T14:51:00.909Z,38.85
2023-04-18T14:53:06.198Z,38.85
2023-04-18T14:55:11.287Z,38.72
2023-04-18T14:57:16.394Z,38.54
2023-04-18T14:59:22.320Z,38.55
2023-04-18T15:01:27.826Z,38.5
2023-04-18T15:03:33.716Z,38.45
2023-04-18T15:05:38.926Z,38.31
2023-04-18T15:07:44.046Z,38.4
2023-04-18T15:09:49.140Z,38.85
2023-04-18T15:11:54.386Z,38.7
2023-04-18T15:13:59.496Z,39.02
2023-04-18T15:16:04.802Z,39.08
2023-04-18T15:18:10.067Z,39.01
2023-04-18T15:20:15.204Z,38.81
2023-04-18T15:22:20.318Z,38.7
2023-04-18T15:24:25.470Z,38.78
2023-04-18T15:26:34.087Z,38.79
2023-04-18T15:28:39.279Z,39.2
2023-04-18T15:30:44.423Z,38.92
2023-04-18T15:32:49.749Z,38.58
2023-04-18T15:34:54.940Z,38.85
2023-04-18T15:37:00.004Z,39.03
2023-04-18T15:39:05.084Z,38.89
2023-04-18T15:41:10.159Z,38.99
2023-04-18T15:43:15.200Z,39.08
2023-04-18T15:45:20.298Z,38.9
2023-04-18T15:47:25.607Z,38.82
2023-04-18T15:49:30.643Z,38.83
2023-04-18T15:51:35.949Z,39.04
2023-04-18T15:53:41.008Z,38.98
2023-04-18T15:55:46.190Z,38.94
2023-04-18T15:57:51.253Z,38.96
2023-04-18T15:59:56.436Z,38.92
2023-04-18T16:02:02.158Z,38.67
2023-04-18T16:04:07.529Z,38.65
2023-04-18T16:06:12.790Z,38.94
2023-04-18T16:08:17.878Z,38.86
2023-04-18T16:10:22.955Z,38.59
2023-04-18T16:12:28.040Z,38.95
2023-04-18T16:14:33.067Z,38.74
2023-04-18T16:16:38.099Z,39.15
2023-04-18T16:18:43.153Z,39.03
2023-04-18T16:20:48.235Z,38.74
2023-04-18T16:22:53.313Z,39
2023-04-18T16:24:58.374Z,39.3
2023-04-18T16:27:03.549Z,39.16
2023-04-18T16:29:08.645Z,39.22
2023-04-18T16:31:13.905Z,39.25
2023-04-18T16:33:19.598Z,39.04
2023-04-18T16:35:24.640Z,39.22
2023-04-18T16:37:29.749Z,38.99
2023-04-18T16:39:34.805Z,39.09
2023-04-18T16:41:40.233Z,39.23
2023-04-18T16:43:45.307Z,39
2023-04-18T16:45:50.359Z,39.08
2023-04-18T16:47:55.704Z,39.33
2023-04-18T16:50:00.920Z,39.13
2023-04-18T16:52:06.064Z,39.06
2023-04-18T16:54:11.409Z,38.71
2023-04-18T16:56:16.646Z,38.37
2023-04-18T16:58:21.690Z,38.9
2023-04-18T17:00:26.751Z,38.63
2023-04-18T17:02:32.763Z,37.89
2023-04-18T17:04:38.115Z,38.43
2023-04-18T17:06:43.273Z,38.2
2023-04-18T17:08:48.380Z,38.04
2023-04-18T17:10:53.419Z,38.11
2023-04-18T17:12:58.466Z,38.3
2023-04-18T17:15:03.556Z,38.27
2023-04-18T17:17:08.580Z,37.95
2023-04-18T17:19:14.347Z,38.32
2023-04-18T17:21:19.714Z,38.06
2023-04-18T17:23:24.830Z,38.14
2023-04-18T17:25:29.956Z,34.65
2023-04-18T17:27:35.008Z,34.64
2023-04-18T17:29:40.115Z,33.79
2023-04-18T17:31:45.375Z,33.56
2023-04-18T17:33:50.546Z,34.77
2023-04-18T17:35:55.701Z,33.55
2023-04-18T17:38:00.794Z,33.84
2023-04-18T17:40:05.988Z,33.89
2023-04-18T17:42:11.083Z,34.41
2023-04-18T17:44:16.198Z,34.61
2023-04-18T17:46:21.440Z,34.43
2023-04-18T17:48:26.630Z,33.64
2023-04-18T17:50:31.715Z,33.52
2023-04-18T17:52:36.957Z,33.45
2023-04-18T17:54:41.971Z,34.23
2023-04-18T17:56:47.089Z,34.18
2023-04-18T17:58:53.323Z,34.17
2023-04-18T18:00:59.840Z,34.08
2023-04-18T18:03:05.739Z,33.91
2023-04-18T18:05:10.906Z,34.22
2023-04-18T18:07:15.911Z,34.49
2023-04-18T18:09:20.999Z,34.31
2023-04-18T18:11:26.094Z,34.38
2023-04-18T18:13:31.169Z,34.44
2023-04-18T18:15:36.310Z,33.89
2023-04-18T18:17:41.478Z,33.77
2023-04-18T18:19:46.448Z,34.01
2023-04-18T18:21:51.442Z,33.86
2023-04-18T18:23:56.405Z,33.87
2023-04-18T18:26:01.514Z,33.74
2023-04-18T18:28:06.928Z,33.79
2023-04-18T18:30:12.090Z,34.26
2023-04-18T18:32:17.378Z,34.66
2023-04-18T18:34:22.454Z,35.11
2023-04-18T18:36:27.630Z,35.76
2023-04-18T18:38:32.727Z,35.98
2023-04-18T18:40:37.862Z,36.05
2023-04-18T18:42:42.920Z,35.83
2023-04-18T18:44:48.021Z,35.88
2023-04-18T18:46:53.448Z,36.18
2023-04-18T18:48:58.551Z,36.32
2023-04-18T18:51:03.642Z,35.49
2023-04-18T18:53:08.738Z,35.53
2023-04-18T18:55:13.903Z,35.23
2023-04-18T18:57:18.997Z,35.43
2023-04-18T18:59:24.028Z,35.43
2023-04-18T19:01:29.325Z,35.66
2023-04-18T19:03:34.976Z,35.78
2023-04-18T19:05:40.125Z,35.83
2023-04-18T19:07:45.156Z,35.5
2023-04-18T19:09:50.234Z,35.6
2023-04-18T19:11:55.304Z,35.83
2023-04-18T19:14:00.368Z,35.76
2023-04-18T19:16:05.573Z,35.58
2023-04-18T19:18:10.789Z,35.22
2023-04-18T19:20:15.906Z,35.65
2023-04-18T19:22:20.965Z,35.83
2023-04-18T19:24:26.123Z,35.03
2023-04-18T19:26:31.265Z,34.93
2023-04-18T19:28:36.372Z,35.4
2023-04-18T19:30:41.463Z,35.13
2023-04-18T19:32:46.640Z,34.95
2023-04-18T19:34:51.741Z,35.56
2023-04-18T19:36:56.818Z,35.79
2023-04-18T19:39:02.027Z,34.21
2023-04-18T19:41:07.124Z,34.1
2023-04-18T19:43:12.248Z,34.3
2023-04-18T19:45:17.367Z,34.12
2023-04-18T19:47:22.697Z,34.11
2023-04-18T19:49:27.790Z,34.05
2023-04-18T19:51:32.886Z,34.07
2023-04-18T19:53:37.963Z,34
2023-04-18T19:55:43.083Z,34.09
2023-04-18T19:57:48.172Z,34.09
2023-04-18T19:59:53.253Z,34.19
2023-04-18T20:02:06.187Z,33.64
2023-04-18T20:04:12.211Z,33.6
2023-04-18T20:06:17.435Z,34.11
2023-04-18T20:08:22.487Z,33.82
2023-04-18T20:10:27.606Z,34.05
2023-04-18T20:12:32.666Z,33.96
2023-04-18T20:14:37.868Z,34.31
2023-04-18T20:16:43.129Z,33.88
2023-04-18T20:18:48.347Z,34.13
2023-04-18T20:20:53.399Z,34.03
2023-04-18T20:22:58.586Z,34.19
2023-04-18T20:25:03.697Z,33.92
2023-04-18T20:27:08.751Z,34.11
2023-04-18T20:29:14.319Z,33.47
2023-04-18T20:31:19.821Z,33.38
2023-04-18T20:33:24.927Z,33.89
2023-04-18T20:35:30.002Z,33.64
2023-04-18T20:37:35.081Z,34.57
2023-04-18T20:39:40.272Z,33.34
2023-04-18T20:41:45.407Z,33.59
2023-04-18T20:43:50.495Z,33.6
2023-04-18T20:45:55.896Z,33.84
2023-04-18T20:48:01.166Z,34.59
2023-04-18T20:50:06.371Z,33.57
2023-04-18T20:52:11.541Z,33.89
2023-04-18T20:54:17.632Z,33.43
2023-04-18T20:56:22.763Z,33.44
2023-04-18T20:58:27.825Z,33.36
2023-04-18T21:00:32.881Z,33.44
2023-04-18T21:02:38.255Z,33.32
2023-04-18T21:04:43.724Z,33.29
2023-04-18T21:06:48.841Z,33.26
2023-04-18T21:08:53.868Z,33.27
2023-04-18T21:10:58.967Z,33.22
2023-04-18T21:13:04.145Z,33.25
2023-04-18T21:15:09.260Z,33.19
2023-04-18T21:17:14.351Z,33.23
2023-04-18T21:19:19.467Z,33.25
2023-04-18T21:21:24.511Z,33.21
2023-04-18T21:23:29.593Z,33.18
2023-04-18T21:25:34.671Z,33.16
2023-04-18T21:27:39.786Z,33.17
2023-04-18T21:29:44.831Z,33.22
2023-04-18T21:31:50.103Z,33.16
2023-04-18T21:33:55.226Z,33.06
2023-04-18T21:36:00.286Z,33.11
2023-04-18T21:38:05.331Z,33.06
2023-04-18T21:40:10.500Z,33.06
2023-04-18T21:42:15.819Z,33.08
2023-04-18T21:44:20.962Z,33.07
2023-04-18T21:46:26.509Z,32.98
2023-04-18T21:48:31.677Z,32.89
2023-04-18T21:50:36.722Z,32.87
2023-04-18T21:52:41.766Z,32.89
2023-04-18T21:54:46.794Z,32.89
2023-04-18T21:56:51.853Z,32.89
2023-04-18T21:58:56.935Z,32.85
2023-04-18T22:01:02.259Z,32.83
2023-04-18T22:03:07.758Z,32.8
2023-04-18T22:05:13.147Z,32.84
2023-04-18T22:07:18.282Z,32.84
2023-04-18T22:09:23.319Z,32.83
2023-04-18T22:11:28.380Z,32.83
2023-04-18T22:13:33.406Z,32.86
2023-04-18T22:15:38.421Z,32.85
2023-04-18T22:17:43.632Z,32.8
2023-04-18T22:19:48.717Z,32.8
2023-04-18T22:21:53.847Z,32.81
2023-04-18T22:23:58.875Z,32.67
2023-04-18T22:26:03.925Z,32.68
2023-04-18T22:28:09.032Z,32.64
2023-04-18T22:30:14.108Z,32.58
2023-04-18T22:32:19.414Z,32.59
2023-04-18T22:34:24.535Z,32.54
2023-04-18T22:36:29.545Z,32.51
2023-04-18T22:38:34.596Z,32.5
2023-04-18T22:40:39.757Z,32.55
2023-04-18T22:42:44.783Z,32.46
2023-04-18T22:44:49.779Z,32.49
2023-04-18T22:46:54.826Z,32.49
2023-04-18T22:48:59.998Z,32.51
2023-04-18T22:51:05.072Z,32.54
2023-04-18T22:53:10.222Z,32.51
2023-04-18T22:55:15.270Z,32.45
2023-04-18T22:57:20.345Z,32.42
2023-04-18T22:59:25.353Z,32.44
2023-04-18T23:01:30.599Z,32.39
2023-04-18T23:03:36.252Z,32.42
2023-04-18T23:05:41.488Z,32.42
2023-04-18T23:07:46.606Z,32.44
2023-04-18T23:09:51.687Z,32.36
2023-04-18T23:11:56.774Z,32.36
2023-04-18T23:14:01.868Z,32.32
2023-04-18T23:16:07.148Z,32.29
2023-04-18T23:18:12.353Z,32.25
2023-04-18T23:20:17.391Z,32.22
2023-04-18T23:22:22.440Z,32.22
2023-04-18T23:24:27.538Z,32.21
2023-04-18T23:26:32.665Z,32.23
2023-04-18T23:28:37.942Z,32.17
2023-04-18T23:30:43.015Z,32.14
2023-04-18T23:32:48.221Z,32.2
2023-04-18T23:34:53.326Z,32.16
2023-04-18T23:36:58.375Z,32.17
2023-04-18T23:39:03.422Z,32.16
2023-04-18T23:41:08.452Z,32.11
2023-04-18T23:43:13.478Z,32.13
2023-04-18T23:45:18.546Z,32.13
2023-04-18T23:47:23.789Z,32.14
2023-04-18T23:49:29.251Z,32.14
2023-04-18T23:51:34.304Z,32.11
2023-04-18T23:53:39.324Z,32.14
2023-04-18T23:55:44.450Z,32.12
2023-04-18T23:57:49.489Z,32.18
2023-04-18T23:59:54.550Z,32.14
